Time;durP1;ratioP1;P1;durP2;ratioP2;P2;SDS_P1;SDS_P2;PMS_P1;PMS_P2;Temp;Humidity;BMP_temperature;BMP_pressure;BME280_temperature;BME280_humidity;BME280_pressure;Samples;Min_cycle;Max_cycle;Signal;HPM_P1;HPM_P2
2021/06/13 00:00:30;;;;;;;7.80;4.30;;;;;;;16.08;79.62;98677.89;1698377;84;20960;-84
2021/06/13 00:02:58;;;;;;;10.35;5.03;;;;;;;16.08;80.21;98681.83;1681601;84;21103;-84
2021/06/13 00:05:25;;;;;;;7.30;4.65;;;;;;;16.09;80.15;98678.30;1683245;85;21085;-84
2021/06/13 00:07:51;;;;;;;6.85;4.50;;;;;;;16.10;79.31;98677.81;1664965;85;21151;-82
2021/06/13 00:10:18;;;;;;;10.18;4.67;;;;;;;16.05;79.80;98676.73;1657243;85;21331;-84
2021/06/13 00:12:45;;;;;;;10.05;4.90;;;;;;;16.03;81.13;98669.42;1657871;86;21088;-81
2021/06/13 00:15:18;;;;;;;11.05;4.95;;;;;;;16.03;80.03;98673.34;1646862;87;21091;-84
2021/06/13 00:17:44;;;;;;;7.22;4.22;;;;;;;16.02;79.51;98669.05;1689741;84;21112;-84
2021/06/13 00:20:16;;;;;;;8.10;4.53;;;;;;;16.05;79.55;98674.59;1691740;84;21091;-83
2021/06/13 00:22:43;;;;;;;6.67;4.50;;;;;;;16.03;78.82;98674.66;1681351;85;21100;-84
2021/06/13 00:25:11;;;;;;;8.50;4.37;;;;;;;16.02;79.50;98682.16;1685990;85;21078;-84
2021/06/13 00:27:39;;;;;;;8.33;4.65;;;;;;;16.00;80.88;98670.08;1679736;85;21107;-84
2021/06/13 00:30:10;;;;;;;8.08;4.87;;;;;;;15.93;81.76;98668.70;1678263;85;21064;-82
2021/06/13 00:32:39;;;;;;;7.25;4.28;;;;;;;15.90;82.56;98666.63;1676721;86;21032;-84
2021/06/13 00:35:07;;;;;;;10.82;4.87;;;;;;;15.93;81.88;98660.84;1673042;84;21035;-83
2021/06/13 00:37:34;;;;;;;11.90;4.70;;;;;;;15.91;82.39;98668.77;1680591;85;21015;-84
2021/06/13 00:40:02;;;;;;;9.68;5.10;;;;;;;15.94;81.59;98668.63;1687399;85;21063;-84
2021/06/13 00:42:29;;;;;;;9.40;5.03;;;;;;;15.92;81.73;98674.41;1688726;85;21078;-84
2021/06/13 00:44:55;;;;;;;10.63;5.08;;;;;;;15.90;81.98;98660.55;1659148;86;21042;-84
2021/06/13 00:47:22;;;;;;;10.43;4.37;;;;;;;15.87;81.99;98662.84;1644040;87;21165;-84
2021/06/13 00:49:48;;;;;;;8.83;4.05;;;;;;;15.83;82.61;98654.77;1648817;87;21055;-83
2021/06/13 00:52:16;;;;;;;9.45;4.25;;;;;;;15.87;81.66;98658.08;1647118;87;21111;-84
2021/06/13 00:54:44;;;;;;;10.72;4.58;;;;;;;15.89;81.94;98651.81;1622756;87;21067;-82
2021/06/13 00:57:10;;;;;;;9.33;4.67;;;;;;;15.90;82.58;98649.59;1651672;85;21032;-83
2021/06/13 00:59:38;;;;;;;8.90;4.33;;;;;;;15.91;82.47;98650.42;1614869;87;21072;-84
2021/06/13 01:02:04;;;;;;;7.58;4.55;;;;;;;15.92;82.71;98648.20;1643315;86;21048;-83
2021/06/13 01:04:32;;;;;;;10.38;4.72;;;;;;;15.90;83.17;98634.33;1633370;87;21048;-83
2021/06/13 01:07:10;;;;;;;12.35;4.92;;;;;;;15.88;82.33;98634.41;1654344;86;21051;-84
2021/06/13 01:09:44;;;;;;;11.03;4.58;;;;;;;15.93;81.76;98635.94;1619118;87;21063;-84
2021/06/13 01:12:28;;;;;;;12.00;4.42;;;;;;;15.97;81.70;98626.49;1645200;86;21068;-83
2021/06/13 01:15:03;;;;;;;13.55;3.77;;;;;;;16.04;80.34;98625.23;1636256;87;21014;-84
2021/06/13 01:17:35;;;;;;;8.58;4.60;;;;;;;16.10;79.85;98607.86;1650082;86;21163;-82
2021/06/13 01:20:11;;;;;;;6.42;4.00;;;;;;;16.09;80.04;98607.94;1650332;87;21010;-83
2021/06/13 01:22:58;;;;;;;7.28;4.17;;;;;;;16.15;79.51;98597.58;1639139;86;21073;-84
2021/06/13 01:25:52;;;;;;;8.38;4.78;;;;;;;16.22;79.22;98593.22;1630149;87;21686;-84
2021/06/13 01:28:51;;;;;;;9.55;3.87;;;;;;;16.30;78.43;98588.86;1640061;86;21312;-84
2021/06/13 01:31:25;;;;;;;6.55;3.75;;;;;;;16.40;78.16;98595.73;1587277;87;21305;-84
2021/06/13 01:33:55;;;;;;;7.45;4.62;;;;;;;16.46;78.82;98590.98;1621670;87;21032;-84
2021/06/13 01:36:25;;;;;;;6.25;4.12;;;;;;;16.54;79.41;98611.53;1687834;85;20993;-83
2021/06/13 01:38:55;;;;;;;6.70;3.70;;;;;;;16.61;80.07;98597.58;1693748;83;21079;-84
2021/06/13 01:41:30;;;;;;;5.97;4.00;;;;;;;16.69;81.25;98597.53;1663124;85;21047;-84
2021/06/13 01:43:59;;;;;;;6.17;4.10;;;;;;;16.74;82.34;98602.51;1690159;83;21086;-85
2021/06/13 01:46:30;;;;;;;6.65;3.92;;;;;;;16.74;83.37;98606.45;1657453;85;21064;-85
2021/06/13 01:48:59;;;;;;;8.73;4.37;;;;;;;16.74;82.78;98613.01;1684681;85;21027;-84
2021/06/13 01:51:26;;;;;;;6.12;4.40;;;;;;;16.77;84.32;98618.09;1681887;84;21007;-85
2021/06/13 01:53:53;;;;;;;9.08;4.22;;;;;;;16.77;83.98;98618.09;1657658;86;21090;-85
2021/06/13 01:56:24;;;;;;;7.10;4.33;;;;;;;16.77;82.88;98616.78;1662459;85;21019;-84
2021/06/13 01:58:55;;;;;;;6.60;4.10;;;;;;;16.79;82.88;98624.09;1660314;85;21021;-84
2021/06/13 02:01:33;;;;;;;8.18;4.35;;;;;;;16.77;84.17;98622.03;1685335;84;21725;-91
2021/06/13 02:04:02;;;;;;;9.25;4.45;;;;;;;16.71;87.11;98622.36;1696480;83;21510;-85
2021/06/13 02:06:51;;;;;;;8.05;4.10;;;;;;;16.71;86.92;98623.67;1693240;85;21063;-86
2021/06/13 02:09:21;;;;;;;8.20;4.20;;;;;;;16.61;88.87;98616.82;1681560;85;20991;-85
2021/06/13 02:11:51;;;;;;;7.70;4.50;;;;;;;16.62;89.82;98618.97;1688494;85;21019;-87
2021/06/13 02:14:24;;;;;;;7.78;3.95;;;;;;;16.53;88.24;98619.48;1687565;85;21164;-85
2021/06/13 02:16:53;;;;;;;8.03;4.20;;;;;;;16.59;85.62;98612.57;1678973;82;21558;-89
2021/06/13 02:19:25;;;;;;;5.90;4.12;;;;;;;16.56;87.53;98609.67;1688703;85;21502;-86
2021/06/13 02:21:56;;;;;;;7.35;4.10;;;;;;;16.58;85.81;98604.34;1674847;84;21047;-86
2021/06/13 02:24:30;;;;;;;9.13;4.58;;;;;;;16.49;87.43;98596.06;1689879;84;21097;-85
2021/06/13 02:26:58;;;;;;;7.58;4.17;;;;;;;16.34;87.32;98592.16;1679732;85;21017;-85
2021/06/13 02:29:28;;;;;;;7.17;4.10;;;;;;;16.38;86.02;98589.73;1679654;85;21057;-86
2021/06/13 02:31:57;;;;;;;8.30;4.00;;;;;;;16.37;85.52;98584.09;1679685;85;21021;-85
2021/06/13 02:34:28;;;;;;;5.78;4.20;;;;;;;16.27;87.66;98582.45;1671881;85;21089;-86
2021/06/13 02:37:00;;;;;;;7.12;4.65;;;;;;;16.23;87.29;98569.98;1674132;86;21117;-85
2021/06/13 02:39:27;;;;;;;9.43;4.42;;;;;;;16.21;87.86;98572.31;1686960;85;21195;-86
2021/06/13 02:41:55;;;;;;;6.97;4.65;;;;;;;16.14;89.29;98556.09;1700247;84;21103;-83
2021/06/13 02:44:23;;;;;;;6.33;4.45;;;;;;;16.17;88.43;98548.51;1660365;85;21436;-86
2021/06/13 02:46:50;;;;;;;8.08;4.25;;;;;;;16.16;88.34;98545.52;1688379;85;21021;-85
2021/06/13 02:49:17;;;;;;;9.68;5.03;;;;;;;16.08;89.10;98536.77;1682505;85;21068;-86
2021/06/13 02:51:59;;;;;;;10.50;4.45;;;;;;;16.13;89.43;98528.64;1685851;84;21015;-89
2021/06/13 02:54:26;;;;;;;9.03;4.87;;;;;;;16.09;88.99;98539.76;1669094;85;21084;-86
2021/06/13 02:57:00;;;;;;;5.95;4.28;;;;;;;16.12;89.37;98548.78;1688968;84;21074;-85
2021/06/13 02:59:42;;;;;;;7.33;4.53;;;;;;;16.06;89.79;98547.34;1689201;85;21061;-85
2021/06/13 03:02:16;;;;;;;10.28;5.22;;;;;;;16.10;88.14;98554.10;1657453;85;20993;-85
2021/06/13 03:04:45;;;;;;;8.73;5.15;;;;;;;16.09;88.56;98551.11;1688418;84;21067;-85
2021/06/13 03:07:18;;;;;;;7.92;4.72;;;;;;;16.06;90.08;98542.57;1694554;85;21017;-86
2021/06/13 03:09:50;;;;;;;8.20;4.47;;;;;;;16.04;89.93;98540.50;1682771;84;21073;-85
2021/06/13 03:12:19;;;;;;;7.92;4.75;;;;;;;16.05;89.03;98541.70;1679844;85;21037;-85
2021/06/13 03:14:48;;;;;;;6.87;4.33;;;;;;;16.01;90.73;98536.25;1672047;85;21127;-85
2021/06/13 03:17:18;;;;;;;6.67;4.25;;;;;;;16.07;89.55;98521.95;1665702;85;21084;-85
2021/06/13 03:19:47;;;;;;;8.33;4.28;;;;;;;16.08;89.94;98515.80;1703390;83;21121;-85
2021/06/13 03:22:15;;;;;;;6.70;4.50;;;;;;;16.18;88.40;98513.02;1679168;85;21022;-85
2021/06/13 03:24:46;;;;;;;7.12;4.35;;;;;;;16.22;89.03;98507.98;1697419;83;21179;-84
2021/06/13 03:27:13;;;;;;;11.90;4.85;;;;;;;16.26;89.01;98509.97;1696919;84;21068;-84
2021/06/13 03:29:44;;;;;;;6.53;4.40;;;;;;;16.34;88.18;98518.23;1679302;84;21015;-84
2021/06/13 03:32:13;;;;;;;7.70;4.72;;;;;;;16.37;88.30;98531.16;1659827;85;21056;-85
2021/06/13 03:34:42;;;;;;;7.30;4.45;;;;;;;16.43;87.44;98525.58;1697473;83;21084;-85
2021/06/13 03:37:11;;;;;;;6.72;4.22;;;;;;;16.46;86.80;98516.20;1697712;84;21033;-85
2021/06/13 03:39:41;;;;;;;8.08;4.92;;;;;;;16.48;88.22;98514.80;1697629;83;21538;-85
2021/06/13 03:42:11;;;;;;;7.30;4.22;;;;;;;16.49;88.40;98508.17;1697991;83;21011;-85
2021/06/13 03:44:39;;;;;;;10.48;4.97;;;;;;;16.46;89.16;98499.15;1698163;83;21035;-84
2021/06/13 03:47:06;;;;;;;11.43;5.10;;;;;;;16.44;90.07;98487.06;1697610;84;21023;-84
2021/06/13 03:49:34;;;;;;;7.87;4.62;;;;;;;16.49;89.03;98466.19;1697286;84;21055;-85
2021/06/13 03:52:01;;;;;;;8.83;4.92;;;;;;;16.53;89.73;98458.11;1697385;84;21030;-85
2021/06/13 03:54:29;;;;;;;7.85;4.47;;;;;;;16.49;90.34;98451.76;1697214;84;21047;-85
2021/06/13 03:57:03;;;;;;;7.20;4.87;;;;;;;16.53;90.00;98456.80;1697081;84;20987;-85
2021/06/13 03:59:30;;;;;;;8.63;4.72;;;;;;;16.53;90.10;98453.70;1673876;82;21677;-89
2021/06/13 04:01:59;;;;;;;7.65;4.85;;;;;;;16.54;89.81;98454.57;1677657;86;21040;-84
2021/06/13 04:04:26;;;;;;;8.93;4.50;;;;;;;16.53;90.78;98458.11;1619483;89;21047;-86
2021/06/13 04:06:54;;;;;;;6.92;4.83;;;;;;;16.51;90.46;98459.51;1678665;85;21007;-86
2021/06/13 04:09:22;;;;;;;8.40;5.00;;;;;;;16.54;91.06;98469.00;1651083;84;21371;-87
2021/06/13 04:11:51;;;;;;;6.87;4.42;;;;;;;16.44;92.17;98457.73;1678592;86;20944;-87
2021/06/13 04:14:18;;;;;;;8.10;4.92;;;;;;;16.47;91.55;98463.25;1678439;83;21337;-87
2021/06/13 04:16:47;;;;;;;10.10;4.65;;;;;;;16.41;92.00;98470.17;1678297;86;21037;-87
2021/06/13 04:19:17;;;;;;;8.20;5.12;;;;;;;16.48;90.77;98468.89;1678673;84;21060;-87
2021/06/13 04:21:45;;;;;;;10.00;5.05;;;;;;;16.50;90.36;98463.92;1678900;84;21031;-87
2021/06/13 04:24:20;;;;;;;10.18;5.10;;;;;;;16.42;91.62;98462.22;1678569;83;21076;-86
2021/06/13 04:26:48;;;;;;;6.83;4.50;;;;;;;16.42;92.07;98465.33;1678947;86;21107;-87
2021/06/13 04:29:15;;;;;;;7.80;4.80;;;;;;;16.48;91.44;98470.20;1678374;86;21042;-86
2021/06/13 04:31:42;;;;;;;8.90;5.33;;;;;;;16.47;91.44;98472.44;1676921;86;21029;-85
2021/06/13 04:34:09;;;;;;;7.25;5.65;;;;;;;16.55;91.09;98470.67;1674829;86;21036;-86
2021/06/13 04:36:35;;;;;;;11.03;5.58;;;;;;;16.54;90.98;98467.69;1675649;86;21051;-85
2021/06/13 04:39:02;;;;;;;7.72;5.33;;;;;;;16.56;89.99;98472.38;1677376;86;21019;-85
2021/06/13 04:41:34;;;;;;;9.03;5.00;;;;;;;16.48;92.07;98468.42;1658170;86;21063;-85
2021/06/13 04:43:58;;;;;;;7.28;4.87;;;;;;;16.56;91.54;98468.44;1676905;84;21042;-85
2021/06/13 04:46:28;;;;;;;8.35;5.03;;;;;;;16.52;91.95;98462.52;1677485;85;21042;-84
2021/06/13 04:48:53;;;;;;;8.25;5.25;;;;;;;16.60;91.28;98460.77;1677139;84;21082;-84
2021/06/13 04:51:21;;;;;;;6.58;4.75;;;;;;;16.63;91.27;98467.98;1677454;85;21541;-82
2021/06/13 04:53:58;;;;;;;7.42;4.70;;;;;;;16.69;90.63;98461.50;1677409;85;21011;-85
2021/06/13 04:56:37;;;;;;;9.38;5.37;;;;;;;16.75;89.94;98474.28;1675488;85;21046;-84
2021/06/13 04:59:03;;;;;;;6.12;4.40;;;;;;;16.79;89.82;98477.09;1669118;85;21079;-85
2021/06/13 05:01:30;;;;;;;8.00;4.80;;;;;;;16.85;89.97;98475.44;1661487;86;21067;-83
2021/06/13 05:03:58;;;;;;;8.50;5.20;;;;;;;16.86;90.06;98482.36;1664994;85;21019;-85
2021/06/13 05:06:25;;;;;;;8.80;5.10;;;;;;;16.89;89.60;98494.01;1665122;86;21152;-84
2021/06/13 05:08:52;;;;;;;7.28;5.33;;;;;;;16.93;88.97;98492.05;1665172;85;20984;-85
2021/06/13 05:11:19;;;;;;;9.03;5.17;;;;;;;16.86;89.18;98482.84;1665354;85;21555;-84
2021/06/13 05:13:45;;;;;;;8.63;5.33;;;;;;;16.90;89.05;98490.43;1665248;85;20972;-84
2021/06/13 05:16:12;;;;;;;8.40;4.95;;;;;;;16.86;89.39;98495.49;1665276;86;21068;-84
2021/06/13 05:18:38;;;;;;;7.50;5.30;;;;;;;16.90;87.95;98494.84;1665772;85;21019;-84
2021/06/13 05:21:06;;;;;;;8.10;4.72;;;;;;;16.89;88.49;98495.32;1665044;85;21043;-83
2021/06/13 05:23:32;;;;;;;8.60;5.17;;;;;;;16.64;89.05;98462.27;1665421;86;21018;-85
2021/06/13 05:26:00;;;;;;;7.47;4.80;;;;;;;16.90;88.87;98494.84;1665223;86;21389;-83
2021/06/13 05:28:27;;;;;;;8.23;4.80;;;;;;;16.89;88.99;98496.63;1668878;85;21125;-84
2021/06/13 05:30:55;;;;;;;7.40;5.75;;;;;;;16.87;88.90;98497.64;1679557;85;21003;-85
2021/06/13 05:33:22;;;;;;;7.12;4.45;;;;;;;16.90;88.59;98498.30;1665028;85;21574;-83
2021/06/13 05:35:50;;;;;;;7.60;4.53;;;;;;;17.01;87.67;98506.86;1664608;86;21113;-84
2021/06/13 05:38:18;;;;;;;6.85;4.72;;;;;;;16.98;88.51;98499.64;1664901;85;21042;-84
2021/06/13 05:40:45;;;;;;;8.58;5.20;;;;;;;16.99;88.65;98507.42;1663585;86;21091;-83
2021/06/13 05:43:13;;;;;;;6.97;4.30;;;;;;;17.06;87.63;98508.72;1662134;85;21494;-84
2021/06/13 05:45:41;;;;;;;9.08;5.25;;;;;;;17.10;87.53;98501.51;1664514;85;21094;-84
2021/06/13 05:48:08;;;;;;;7.58;4.87;;;;;;;17.12;87.50;98507.98;1665237;86;21059;-85
2021/06/13 05:50:36;;;;;;;7.40;4.05;;;;;;;17.16;87.47;98522.62;1665358;86;21047;-85
2021/06/13 05:53:05;;;;;;;8.63;4.80;;;;;;;17.18;88.59;98535.19;1665474;85;21058;-83
2021/06/13 05:55:31;;;;;;;7.53;4.28;;;;;;;17.24;87.39;98542.69;1665386;86;21122;-84
2021/06/13 05:58:00;;;;;;;4.37;2.62;;;;;;;17.26;87.89;98545.59;1666812;85;21111;-85
2021/06/13 06:00:34;;;;;;;7.17;1.90;;;;;;;17.20;84.28;98551.70;1670200;85;21384;-84
2021/06/13 06:03:01;;;;;;;3.72;1.70;;;;;;;17.08;83.54;98534.42;1680293;85;21023;-85
2021/06/13 06:05:30;;;;;;;2.95;1.50;;;;;;;16.90;82.82;98536.38;1678128;85;21034;-85
2021/06/13 06:07:58;;;;;;;2.33;1.45;;;;;;;16.78;84.38;98547.58;1660414;84;21926;-84
2021/06/13 06:10:32;;;;;;;2.98;1.47;;;;;;;16.74;83.69;98538.20;1677269;86;21031;-85
2021/06/13 06:13:03;;;;;;;5.30;1.30;;;;;;;16.64;83.37;98531.33;1674146;86;21101;-84
2021/06/13 06:15:34;;;;;;;2.25;1.22;;;;;;;16.49;85.22;98544.03;1674083;86;21067;-85
2021/06/13 06:18:01;;;;;;;6.25;1.77;;;;;;;16.43;84.05;98564.94;1678197;86;21070;-88
2021/06/13 06:20:30;;;;;;;4.60;1.40;;;;;;;16.15;87.06;98580.53;1678511;86;21046;-87
2021/06/13 06:22:57;;;;;;;6.00;1.70;;;;;;;16.06;87.31;98573.56;1678487;85;21003;-87
2021/06/13 06:25:25;;;;;;;4.20;1.45;;;;;;;16.01;87.89;98565.56;1678364;86;21035;-87
2021/06/13 06:27:53;;;;;;;5.35;1.50;;;;;;;15.87;88.65;98572.41;1677993;86;21082;-88
2021/06/13 06:30:21;;;;;;;5.62;1.60;;;;;;;15.88;86.16;98586.39;1674333;86;21035;-85
2021/06/13 06:32:48;;;;;;;9.13;1.40;;;;;;;15.84;87.04;98581.77;1675071;86;21885;-85
2021/06/13 06:35:15;;;;;;;1.82;1.20;;;;;;;15.90;88.23;98570.11;1673629;86;21175;-85
2021/06/13 06:37:43;;;;;;;3.37;1.22;;;;;;;15.98;87.71;98567.91;1677613;85;20991;-85
2021/06/13 06:40:12;;;;;;;2.45;1.30;;;;;;;16.07;88.21;98571.30;1677220;86;21948;-85
2021/06/13 06:42:39;;;;;;;4.92;1.30;;;;;;;16.22;88.61;98577.95;1673041;86;21113;-84
2021/06/13 06:45:08;;;;;;;4.05;1.40;;;;;;;16.35;88.07;98575.47;1677636;85;21094;-85
2021/06/13 06:47:35;;;;;;;8.60;1.40;;;;;;;16.42;87.42;98567.64;1651377;83;21195;-86
2021/06/13 06:50:03;;;;;;;4.90;1.37;;;;;;;16.55;87.47;98565.14;1641005;85;21091;-87
2021/06/13 06:52:30;;;;;;;3.45;1.35;;;;;;;16.65;87.43;98557.97;1670417;86;21036;-85
2021/06/13 06:54:58;;;;;;;2.95;1.50;;;;;;;16.76;86.18;98574.39;1657841;86;21112;-86
2021/06/13 06:57:25;;;;;;;3.75;1.30;;;;;;;16.83;86.06;98576.20;1610714;88;21432;-87
2021/06/13 06:59:51;;;;;;;4.45;1.45;;;;;;;16.90;85.60;98575.76;1642061;87;21580;-86
2021/06/13 07:02:18;;;;;;;3.87;1.47;;;;;;;17.02;84.74;98579.91;1647344;86;21027;-84
2021/06/13 07:04:46;;;;;;;3.08;1.42;;;;;;;17.04;84.39;98580.67;1614165;89;21086;-87
2021/06/13 07:07:12;;;;;;;2.77;1.40;;;;;;;17.17;83.79;98571.56;1642078;87;21041;-85
2021/06/13 07:09:38;;;;;;;3.17;1.57;;;;;;;17.32;82.45;98579.84;1641966;86;21019;-84
2021/06/13 07:12:05;;;;;;;3.70;1.50;;;;;;;17.49;83.13;98592.80;1668469;85;21068;-84
2021/06/13 07:14:32;;;;;;;3.00;1.37;;;;;;;17.66;84.12;98599.63;1645618;86;21051;-84
2021/06/13 07:16:58;;;;;;;3.52;1.80;;;;;;;17.83;83.45;98606.51;1612837;89;21063;-85
2021/06/13 07:19:25;;;;;;;3.12;1.62;;;;;;;18.03;82.66;98613.63;1639078;87;21099;-85
2021/06/13 07:21:51;;;;;;;1.90;1.17;;;;;;;18.12;83.50;98607.75;1648746;86;21042;-85
2021/06/13 07:24:18;;;;;;;1.77;0.95;;;;;;;18.28;82.14;98621.64;1611683;88;21116;-84
2021/06/13 07:26:44;;;;;;;1.77;0.90;;;;;;;18.20;77.46;98621.73;1624603;88;21056;-85
2021/06/13 07:29:11;;;;;;;1.00;0.88;;;;;;;18.27;76.92;98623.88;1642909;86;21009;-84
2021/06/13 07:31:37;;;;;;;1.42;1.00;;;;;;;18.29;76.13;98631.69;1641123;86;21457;-84
2021/06/13 07:34:04;;;;;;;1.15;0.70;;;;;;;18.21;72.52;98635.28;1616069;88;21096;-84
2021/06/13 07:36:30;;;;;;;3.08;0.95;;;;;;;18.29;73.91;98642.21;1651893;87;21055;-83
2021/06/13 07:38:56;;;;;;;1.67;1.07;;;;;;;18.38;73.06;98650.84;1651054;86;21047;-84
2021/06/13 07:41:23;;;;;;;3.37;1.15;;;;;;;18.44;71.68;98662.29;1653244;86;21181;-84
2021/06/13 07:43:49;;;;;;;2.25;1.32;;;;;;;18.54;69.32;98669.09;1639460;87;21020;-83
2021/06/13 07:46:16;;;;;;;0.95;0.70;;;;;;;18.67;71.67;98679.21;1643440;85;21094;-84
2021/06/13 07:48:42;;;;;;;3.05;1.10;;;;;;;18.66;70.71;98685.88;1649906;86;21126;-83
2021/06/13 07:51:09;;;;;;;1.98;0.88;;;;;;;18.66;70.06;98699.05;1626589;88;21083;-84
2021/06/13 07:53:43;;;;;;;1.55;1.02;;;;;;;18.64;70.42;98700.94;1627959;88;21074;-83
2021/06/13 07:56:05;;;;;;;2.50;1.10;;;;;;;18.65;69.78;98712.70;1643026;87;21072;-82
2021/06/13 07:58:32;;;;;;;1.52;0.90;;;;;;;18.67;70.60;98729.72;1645229;87;21066;-83
2021/06/13 08:00:58;;;;;;;2.15;1.10;;;;;;;18.72;68.81;98734.23;1649617;86;21114;-83
2021/06/13 08:03:25;;;;;;;4.83;2.20;;;;;;;18.74;70.09;98739.38;1645226;87;21000;-83
2021/06/13 08:05:51;;;;;;;4.47;2.05;;;;;;;18.82;70.36;98745.02;1624409;88;21082;-83
2021/06/13 08:08:18;;;;;;;2.98;1.70;;;;;;;18.85;67.29;98754.05;1580350;89;21172;-86
2021/06/13 08:10:44;;;;;;;3.10;1.90;;;;;;;18.92;67.91;98754.05;1582858;91;21109;-85
2021/06/13 08:13:12;;;;;;;2.87;1.27;;;;;;;19.02;67.57;98758.21;1582113;90;21044;-85
2021/06/13 08:15:39;;;;;;;2.05;1.15;;;;;;;19.17;68.12;98765.60;1609210;89;21059;-86
2021/06/13 08:18:06;;;;;;;4.08;1.30;;;;;;;19.33;66.65;98763.63;1639893;87;21050;-83
2021/06/13 08:20:33;;;;;;;2.35;1.10;;;;;;;19.48;67.27;98772.33;1637608;87;21071;-83
2021/06/13 08:22:59;;;;;;;3.55;1.20;;;;;;;19.62;66.46;98772.23;1643147;87;21665;-83
2021/06/13 08:25:26;;;;;;;3.62;1.12;;;;;;;19.59;66.37;98768.48;1621721;88;21045;-83
2021/06/13 08:27:55;;;;;;;1.65;1.00;;;;;;;19.79;65.67;98763.68;1591820;90;21088;-83
2021/06/13 08:30:21;;;;;;;1.92;0.90;;;;;;;19.97;66.67;98761.09;1591236;90;21040;-84
2021/06/13 08:32:47;;;;;;;1.70;1.00;;;;;;;19.98;63.00;98766.75;1599364;89;21109;-83
2021/06/13 08:35:15;;;;;;;1.62;1.10;;;;;;;20.06;64.01;98771.02;1598609;89;21177;-83
2021/06/13 08:37:42;;;;;;;2.35;0.90;;;;;;;20.08;62.83;98764.32;1586958;89;21053;-82
2021/06/13 08:40:12;;;;;;;4.85;1.00;;;;;;;20.13;63.40;98771.42;1624483;88;21167;-83
2021/06/13 08:42:42;;;;;;;1.67;1.07;;;;;;;20.24;63.61;98772.02;1626451;87;21063;-84
2021/06/13 08:45:12;;;;;;;2.20;1.10;;;;;;;20.33;61.55;98772.67;1639399;87;21055;-84
2021/06/13 08:47:41;;;;;;;1.20;0.85;;;;;;;20.44;63.33;98771.93;1645733;86;21129;-84
2021/06/13 08:50:10;;;;;;;3.15;1.00;;;;;;;20.37;61.13;98773.30;1638175;88;21118;-83
2021/06/13 08:52:38;;;;;;;4.60;1.20;;;;;;;20.35;60.71;98768.61;1638362;87;21039;-83
2021/06/13 08:55:10;;;;;;;2.83;1.10;;;;;;;20.20;59.04;98782.42;1640440;87;21075;-83
2021/06/13 08:57:37;;;;;;;2.37;1.00;;;;;;;20.30;60.07;98780.82;1649235;87;21039;-83
2021/06/13 09:00:13;;;;;;;2.80;1.20;;;;;;;20.33;62.21;98771.34;1647371;87;21059;-83
2021/06/13 09:02:41;;;;;;;4.90;1.20;;;;;;;20.29;62.42;98771.69;1633417;87;21511;-83
2021/06/13 09:05:13;;;;;;;1.50;0.90;;;;;;;20.38;62.84;98767.92;1639262;87;21007;-83
2021/06/13 09:07:54;;;;;;;1.80;0.98;;;;;;;20.35;62.32;98769.47;1623921;88;21095;-84
2021/06/13 09:10:27;;;;;;;3.65;1.10;;;;;;;20.37;62.42;98775.48;1636140;87;21585;-83
2021/06/13 09:13:22;;;;;;;1.62;1.10;;;;;;;20.31;61.57;98779.02;1635899;87;20996;-80
2021/06/13 09:15:55;;;;;;;1.90;1.02;;;;;;;20.41;62.58;98784.02;1636823;87;21114;-81
2021/06/13 09:18:42;;;;;;;1.50;1.00;;;;;;;20.42;60.25;98775.98;1637001;87;21526;-81
2021/06/13 09:21:14;;;;;;;4.95;1.55;;;;;;;20.53;61.94;98777.02;1620920;86;21036;-82
2021/06/13 09:23:42;;;;;;;1.37;0.98;;;;;;;20.51;61.80;98778.44;1636307;87;21067;-82
2021/06/13 09:26:12;;;;;;;3.25;1.10;;;;;;;20.61;62.27;98774.70;1647989;86;21054;-82
2021/06/13 09:28:42;;;;;;;3.72;1.37;;;;;;;20.69;62.30;98771.06;1622614;88;21135;-81
2021/06/13 09:31:30;;;;;;;2.72;0.90;;;;;;;20.77;60.84;98776.63;1640108;86;21551;-81
2021/06/13 09:33:59;;;;;;;1.40;0.95;;;;;;;20.88;61.08;98773.69;1629579;87;21063;-82
2021/06/13 09:36:32;;;;;;;3.72;1.30;;;;;;;21.05;60.27;98774.63;1634226;87;21041;-81
2021/06/13 09:39:06;;;;;;;1.57;0.90;;;;;;;21.18;57.41;98782.00;1622514;88;21060;-83
2021/06/13 09:41:37;;;;;;;4.60;1.30;;;;;;;21.31;57.21;98776.66;1581335;90;21061;-82
2021/06/13 09:44:10;;;;;;;1.87;1.22;;;;;;;21.38;54.04;98776.55;1637457;87;21122;-84
2021/06/13 09:46:39;;;;;;;;;;;;;;;21.53;55.66;98783.02;1637926;88;21107;-83
2021/06/13 09:49:15;;;;;;;3.47;1.22;;;;;;;21.77;52.43;98779.83;1670328;85;20116;-82
2021/06/13 09:51:53;;;;;;;1.60;1.20;;;;;;;22.01;51.90;98777.09;1642727;86;21063;-83
2021/06/13 09:54:26;;;;;;;2.83;1.20;;;;;;;22.14;47.24;98784.92;1666701;86;21075;-83
2021/06/13 09:56:53;;;;;;;;;;;;;;;22.19;48.32;98798.66;1673200;85;21111;-84
2021/06/13 09:59:26;;;;;;;3.47;1.20;;;;;;;22.30;47.71;98790.38;1672144;85;20446;-82
2021/06/13 10:01:59;;;;;;;1.82;1.07;;;;;;;22.42;45.79;98791.60;1673576;85;21110;-81
2021/06/13 10:04:30;;;;;;;1.67;1.10;;;;;;;22.59;44.01;98777.49;1667306;85;21039;-82
2021/06/13 10:07:03;;;;;;;2.33;1.32;;;;;;;22.48;37.86;98803.48;1666572;86;21043;-83
2021/06/13 10:09:45;;;;;;;6.12;1.77;;;;;;;22.38;36.65;98791.48;1645834;85;21574;-82
2021/06/13 10:12:11;;;;;;;1.80;1.40;;;;;;;22.43;40.67;98798.56;1677939;85;21032;-81
2021/06/13 10:14:39;;;;;;;2.60;1.47;;;;;;;22.23;38.54;98798.77;1669792;85;20996;-83
2021/06/13 10:17:06;;;;;;;5.10;1.70;;;;;;;22.25;41.24;98796.05;1678161;85;21075;-83
2021/06/13 10:19:42;;;;;;;2.75;1.82;;;;;;;22.29;41.79;98799.30;1639876;87;21408;-83
2021/06/13 10:22:11;;;;;;;6.08;1.57;;;;;;;22.28;39.59;98797.11;1639190;87;21096;-83
2021/06/13 10:24:41;;;;;;;5.12;1.57;;;;;;;22.48;37.78;98812.77;1678602;85;21127;-83
2021/06/13 10:27:12;;;;;;;3.98;1.60;;;;;;;22.51;37.08;98807.73;1672565;85;21019;-83
2021/06/13 10:29:42;;;;;;;2.10;1.30;;;;;;;22.57;38.36;98813.86;1668443;85;21031;-83
2021/06/13 10:32:11;;;;;;;2.85;1.40;;;;;;;22.40;37.07;98816.50;1671712;85;21066;-83
2021/06/13 10:34:38;;;;;;;1.80;1.37;;;;;;;22.33;37.19;98820.61;1648149;87;21023;-82
2021/06/13 10:37:08;;;;;;;3.77;1.35;;;;;;;22.26;38.60;98820.71;1654046;87;21714;-83
2021/06/13 10:39:37;;;;;;;2.27;1.40;;;;;;;22.08;36.68;98819.81;1662099;86;21327;-82
2021/06/13 10:42:13;;;;;;;2.70;1.20;;;;;;;21.92;36.71;98842.64;1664035;86;21036;-84
2021/06/13 10:44:53;;;;;;;2.77;1.30;;;;;;;21.92;37.57;98822.79;1661036;86;20981;-84
2021/06/13 10:47:22;;;;;;;3.72;1.60;;;;;;;21.85;37.89;98829.04;1683110;85;21143;-81
2021/06/13 10:50:03;;;;;;;7.35;1.40;;;;;;;21.77;38.40;98826.13;1653828;87;21100;-82
2021/06/13 10:52:33;;;;;;;2.98;1.30;;;;;;;21.87;37.67;98830.25;1636291;87;21036;-83
2021/06/13 10:55:03;;;;;;;4.20;1.60;;;;;;;21.91;38.49;98830.38;1656295;87;21076;-83
2021/06/13 10:57:43;;;;;;;4.50;1.90;;;;;;;21.91;39.50;98824.25;1664598;86;21083;-82
2021/06/13 11:00:24;;;;;;;5.35;1.42;;;;;;;21.99;39.86;98825.83;1623744;88;21159;-82
2021/06/13 11:03:01;;;;;;;2.05;1.42;;;;;;;22.07;38.40;98835.84;1624064;88;21679;-83
2021/06/13 11:05:46;;;;;;;3.22;1.60;;;;;;;22.02;38.35;98833.52;1621708;88;21524;-83
2021/06/13 11:08:15;;;;;;;5.20;1.70;;;;;;;22.22;38.60;98833.31;1624057;88;21599;-83
2021/06/13 11:10:42;;;;;;;4.05;1.70;;;;;;;22.55;39.11;98829.87;1624306;88;21032;-83
2021/06/13 11:13:16;;;;;;;3.20;1.40;;;;;;;22.77;38.03;98836.13;1597825;90;21152;-83
2021/06/13 11:15:47;;;;;;;4.97;1.30;;;;;;;22.92;35.47;98844.64;1589201;90;21048;-83
2021/06/13 11:18:20;;;;;;;2.15;1.30;;;;;;;22.88;35.79;98844.53;1598061;89;21064;-84
2021/06/13 11:21:05;;;;;;;2.15;1.35;;;;;;;22.79;36.13;98842.14;1617003;87;21061;-83
2021/06/13 11:23:37;;;;;;;3.12;1.30;;;;;;;22.83;36.99;98856.83;1622942;88;21048;-84
2021/06/13 11:26:11;;;;;;;3.22;1.42;;;;;;;22.78;37.56;98851.91;1629995;88;21109;-84
2021/06/13 11:28:44;;;;;;;3.70;1.45;;;;;;;22.76;35.59;98851.19;1624149;88;21049;-82
2021/06/13 11:31:18;;;;;;;4.42;1.20;;;;;;;22.57;37.11;98864.20;1623683;88;21056;-82
2021/06/13 11:33:49;;;;;;;1.77;1.20;;;;;;;22.46;36.10;98852.26;1623620;87;21119;-83
2021/06/13 11:36:25;;;;;;;2.17;1.15;;;;;;;22.56;35.20;98859.39;1622001;88;21160;-83
2021/06/13 11:39:05;;;;;;;3.42;1.37;;;;;;;22.39;36.37;98850.09;1596545;89;21122;-83
2021/06/13 11:41:47;;;;;;;3.42;1.30;;;;;;;22.43;36.76;98839.62;1610645;89;21084;-84
2021/06/13 11:44:25;;;;;;;5.87;1.10;;;;;;;22.42;35.61;98846.35;1614161;88;21072;-81
2021/06/13 11:46:53;;;;;;;2.20;1.15;;;;;;;22.34;35.66;98840.36;1591251;90;21618;-81